Time;durP1;ratioP1;P1;durP2;ratioP2;P2;SDS_P1;SDS_P2;PMS_P1;PMS_P2;Temp;Humidity;BMP_temperature;BMP_pressure;BME280_temperature;BME280_humidity;BME280_pressure;Samples;Min_cycle;Max_cycle;Signal;HPM_P1;HPM_P2
2022/06/01 00:02:15;;;;;;;2.13;1.92;;;21.60;60.40;;;;;;5016049;28;20029;-74
2022/06/01 00:04:41;;;;;;;2.55;1.77;;;21.50;60.40;;;;;;5016482;28;20025;-74
2022/06/01 00:07:07;;;;;;;2.22;1.50;;;21.50;60.50;;;;;;5016209;28;20080;-74
2022/06/01 00:09:33;;;;;;;1.70;1.60;;;21.50;60.50;;;;;;5016116;28;20098;-74
2022/06/01 00:11:59;;;;;;;2.00;1.90;;;21.50;60.50;;;;;;5014826;28;20487;-74
2022/06/01 00:14:24;;;;;;;3.35;2.08;;;21.40;60.50;;;;;;5015944;28;20025;-74
2022/06/01 00:16:55;;;;;;;1.95;1.83;;;21.40;60.60;;;;;;5015863;28;20022;-74
2022/06/01 00:19:22;;;;;;;1.92;1.83;;;21.40;60.60;;;;;;5015711;28;20077;-75
2022/06/01 00:24:32;;;;;;;;;;;21.30;60.70;;;;;;5016603;28;20092;-74
2022/06/01 00:26:58;;;;;;;2.22;2.03;;;21.20;61.00;;;;;;5015952;28;20310;-74
2022/06/01 00:29:23;;;;;;;2.75;2.20;;;21.20;60.80;;;;;;5016044;28;20087;-74
2022/06/01 00:31:49;;;;;;;2.28;2.17;;;21.20;60.90;;;;;;5015968;28;20080;-74
2022/06/01 00:34:15;;;;;;;2.22;2.03;;;21.20;61.00;;;;;;5016021;28;20026;-74
2022/06/01 00:36:40;;;;;;;2.20;2.10;;;21.20;61.00;;;;;;5014448;28;20033;-74
2022/06/01 00:39:06;;;;;;;2.17;2.08;;;21.20;61.00;;;;;;5015601;28;20096;-74
2022/06/01 00:41:32;;;;;;;2.20;2.10;;;21.20;61.00;;;;;;5014123;28;20026;-74
2022/06/01 00:43:57;;;;;;;3.03;2.08;;;21.20;61.00;;;;;;5018114;28;20049;-74
2022/06/01 00:46:23;;;;;;;1.90;1.80;;;21.20;61.00;;;;;;5015777;28;20037;-74
2022/06/01 00:48:54;;;;;;;1.90;1.80;;;21.20;61.10;;;;;;5014511;28;20033;-74
2022/06/01 00:51:25;;;;;;;2.13;2.03;;;21.20;61.10;;;;;;5015558;28;20026;-74
2022/06/01 00:53:53;;;;;;;2.08;1.98;;;21.20;61.10;;;;;;5029272;28;20593;-74
2022/06/01 00:56:24;;;;;;;1.95;1.85;;;21.10;61.10;;;;;;5033698;28;20426;-74
2022/06/01 00:58:55;;;;;;;2.10;1.90;;;21.10;61.10;;;;;;5034944;28;20065;-75
2022/06/01 01:01:21;;;;;;;2.08;1.70;;;21.10;61.20;;;;;;5035071;28;20030;-74
2022/06/01 01:03:50;;;;;;;2.75;2.33;;;21.10;61.20;;;;;;5033620;28;20025;-74
2022/06/01 01:06:26;;;;;;;2.30;2.10;;;21.10;61.30;;;;;;5033678;28;20099;-75
2022/06/01 01:08:52;;;;;;;2.80;1.98;;;21.00;61.30;;;;;;5034917;28;20031;-74
2022/06/01 01:11:29;;;;;;;2.17;1.98;;;20.90;61.40;;;;;;5034593;28;20189;-75
2022/06/01 01:13:57;;;;;;;3.03;2.05;;;20.90;61.60;;;;;;5034804;28;20112;-74
2022/06/01 01:16:24;;;;;;;2.00;1.80;;;20.90;61.60;;;;;;5033979;28;20383;-75
2022/06/01 01:18:54;;;;;;;2.25;1.73;;;20.90;61.60;;;;;;5033240;28;20040;-75
2022/06/01 01:22:10;;;;;;;2.03;1.92;;;20.90;61.60;;;;;;5018137;28;20030;-75
2022/06/01 01:25:17;;;;;;;2.10;1.90;;;20.90;61.70;;;;;;5023729;28;20038;-76
2022/06/01 01:27:48;;;;;;;1.92;1.83;;;20.90;61.80;;;;;;5013710;28;20465;-76
2022/06/01 01:30:36;;;;;;;1.77;1.67;;;20.90;61.60;;;;;;5014547;28;20038;-75
2022/06/01 01:33:15;;;;;;;1.90;1.80;;;20.90;61.70;;;;;;5014567;28;20121;-76
2022/06/01 01:35:44;;;;;;;2.20;1.98;;;20.90;62.10;;;;;;5014846;28;20029;-75
2022/06/01 01:38:22;;;;;;;2.10;1.90;;;20.90;61.70;;;;;;5014479;28;20026;-76
2022/06/01 01:41:01;;;;;;;1.85;1.75;;;20.90;61.70;;;;;;5013736;28;20045;-76
2022/06/01 01:43:27;;;;;;;2.10;1.90;;;20.90;61.90;;;;;;5014376;28;20034;-76
2022/06/01 01:45:52;;;;;;;1.90;1.80;;;20.90;61.70;;;;;;5014711;28;20026;-76
2022/06/01 01:48:18;;;;;;;1.90;1.80;;;20.90;62.30;;;;;;5014462;28;20109;-76
2022/06/01 01:50:43;;;;;;;1.95;1.80;;;20.90;61.70;;;;;;5014165;28;20104;-77
2022/06/01 01:53:09;;;;;;;2.00;1.75;;;20.90;61.70;;;;;;5014112;28;20026;-76
2022/06/01 01:55:43;;;;;;;1.90;1.80;;;20.90;61.70;;;;;;5014569;28;20026;-76
2022/06/01 01:58:50;;;;;;;1.90;1.80;;;21.00;61.80;;;;;;5014350;28;20026;-76
2022/06/01 02:01:24;;;;;;;2.05;1.95;;;20.90;61.70;;;;;;5013060;28;20030;-76
2022/06/01 02:04:00;;;;;;;2.13;2.00;;;20.90;61.60;;;;;;5013051;28;20033;-75
2022/06/01 02:06:42;;;;;;;3.33;1.83;;;20.90;61.70;;;;;;5014177;28;20026;-75
2022/06/01 02:09:10;;;;;;;1.90;1.70;;;20.90;61.70;;;;;;5013106;28;20038;-75
2022/06/01 02:14:38;;;;;;;1.75;1.65;;;20.90;61.70;;;;;;5014009;28;20053;-75
2022/06/01 02:17:09;;;;;;;2.00;1.90;;;20.90;61.80;;;;;;5012846;28;20040;-76
2022/06/01 02:19:55;;;;;;;2.17;2.00;;;20.90;61.70;;;;;;5012763;28;20396;-76
2022/06/01 02:22:21;;;;;;;2.30;1.70;;;20.90;61.70;;;;;;5014058;28;20030;-77
2022/06/01 02:24:47;;;;;;;2.40;1.63;;;20.90;61.80;;;;;;5012699;28;20081;-76
2022/06/01 02:27:14;;;;;;;1.90;1.80;;;20.80;61.80;;;;;;5012708;28;20028;-76
2022/06/01 02:30:08;;;;;;;2.05;1.95;;;20.80;61.90;;;;;;5012311;28;20062;-76
2022/06/01 02:32:34;;;;;;;1.98;1.88;;;20.80;61.90;;;;;;5013724;28;20049;-76
2022/06/01 02:35:04;;;;;;;1.90;1.80;;;20.80;61.80;;;;;;5013732;28;20044;-76
2022/06/01 02:37:31;;;;;;;1.90;1.80;;;20.80;61.90;;;;;;5012740;28;20069;-76
2022/06/01 02:39:59;;;;;;;2.00;1.85;;;20.80;62.00;;;;;;5017687;28;20034;-76
2022/06/01 02:42:30;;;;;;;1.77;1.67;;;20.70;62.00;;;;;;5026534;28;20079;-76
2022/06/01 02:45:04;;;;;;;1.70;1.60;;;20.80;62.20;;;;;;5037493;28;20037;-76
2022/06/01 02:47:32;;;;;;;1.85;1.75;;;20.80;62.10;;;;;;5036958;28;20030;-76
2022/06/01 02:49:59;;;;;;;1.83;1.73;;;20.80;62.10;;;;;;5036332;28;20112;-76
2022/06/01 02:52:25;;;;;;;2.00;1.88;;;20.90;62.10;;;;;;5036336;28;20033;-76
2022/06/01 02:54:52;;;;;;;2.33;2.00;;;20.90;62.00;;;;;;5035931;28;20482;-76
2022/06/01 02:57:18;;;;;;;2.05;1.85;;;21.00;62.00;;;;;;5037389;28;20022;-76
2022/06/01 02:59:44;;;;;;;2.20;2.00;;;21.00;62.00;;;;;;5036888;28;20448;-76
2022/06/01 03:02:10;;;;;;;1.88;1.77;;;21.00;62.00;;;;;;5037268;28;20079;-76
2022/06/01 03:04:38;;;;;;;2.55;1.70;;;21.10;62.00;;;;;;5037243;28;20371;-76
2022/06/01 03:07:04;;;;;;;2.03;1.70;;;21.10;62.00;;;;;;5035967;28;20038;-76
2022/06/01 03:09:31;;;;;;;1.73;1.63;;;21.10;61.90;;;;;;5036925;28;20025;-76
2022/06/01 03:11:57;;;;;;;1.92;1.70;;;21.10;61.90;;;;;;5037425;28;20037;-76
2022/06/01 03:14:23;;;;;;;1.85;1.73;;;21.20;61.90;;;;;;5036755;28;20029;-76
2022/06/01 03:16:48;;;;;;;2.08;1.98;;;21.20;61.90;;;;;;5035974;28;20068;-76
2022/06/01 03:19:14;;;;;;;1.73;1.63;;;21.20;61.80;;;;;;5036796;28;20444;-76
2022/06/01 03:21:40;;;;;;;1.73;1.63;;;21.20;61.80;;;;;;5036907;28;20108;-76
2022/06/01 03:24:07;;;;;;;1.80;1.70;;;21.30;61.70;;;;;;5036549;28;20029;-77
2022/06/01 03:26:33;;;;;;;1.95;1.75;;;21.30;61.70;;;;;;5036942;28;20488;-76
2022/06/01 03:28:58;;;;;;;1.90;1.80;;;21.30;61.70;;;;;;5036903;28;20046;-76
2022/06/01 03:31:24;;;;;;;1.95;1.73;;;21.30;61.70;;;;;;5036640;28;20037;-76
2022/06/01 03:33:50;;;;;;;2.10;1.90;;;21.30;61.50;;;;;;5036728;28;20026;-76
2022/06/01 03:36:15;;;;;;;2.25;1.83;;;21.30;61.50;;;;;;5036686;28;20026;-76
2022/06/01 03:38:41;;;;;;;2.03;1.92;;;21.30;61.50;;;;;;5036489;28;20021;-76
2022/06/01 03:41:07;;;;;;;2.30;1.90;;;21.20;61.50;;;;;;5035553;28;20037;-76
2022/06/01 03:45:55;;;;;;;1.80;1.70;;;21.10;61.60;;;;;;5035308;28;20041;-78
2022/06/01 03:46:18;;;;;;;2.03;1.83;;;21.10;61.70;;;;;;5036573;28;20037;-76
2022/06/01 03:48:44;;;;;;;1.83;1.73;;;21.10;61.80;;;;;;5036829;28;20038;-77
2022/06/01 03:51:10;;;;;;;2.25;2.08;;;21.10;61.70;;;;;;5035821;28;20040;-77
2022/06/01 03:53:35;;;;;;;2.00;1.88;;;21.10;61.80;;;;;;5034883;28;20391;-76
2022/06/01 03:56:02;;;;;;;1.90;1.80;;;21.10;61.90;;;;;;5036239;28;20026;-77
2022/06/01 03:58:29;;;;;;;2.22;1.98;;;21.10;61.90;;;;;;5035920;28;20525;-76
2022/06/01 04:00:55;;;;;;;1.90;1.80;;;21.10;62.00;;;;;;5018416;28;20045;-76
2022/06/01 04:03:21;;;;;;;2.45;2.10;;;21.10;62.00;;;;;;5035064;28;20120;-76
2022/06/01 04:05:48;;;;;;;2.33;2.05;;;21.10;62.00;;;;;;5035996;28;20499;-76
2022/06/01 04:08:13;;;;;;;1.70;1.60;;;21.10;62.00;;;;;;5034581;28;20026;-76
2022/06/01 04:10:43;;;;;;;1.95;1.80;;;21.10;62.10;;;;;;5034507;28;20075;-77
2022/06/01 04:13:10;;;;;;;2.05;1.95;;;21.10;62.20;;;;;;5035886;28;20025;-76
2022/06/01 04:15:36;;;;;;;2.08;1.92;;;21.20;62.20;;;;;;5035641;28;20021;-76
2022/06/01 04:18:04;;;;;;;2.33;2.13;;;21.20;62.20;;;;;;5034762;28;20456;-77
2022/06/01 04:20:29;;;;;;;2.03;1.92;;;21.20;62.00;;;;;;5034412;28;20038;-76
2022/06/01 04:22:57;;;;;;;2.40;2.20;;;21.20;62.10;;;;;;5035525;28;20047;-76
2022/06/01 04:25:23;;;;;;;2.28;2.08;;;21.10;62.00;;;;;;5034509;28;20069;-76
2022/06/01 04:27:49;;;;;;;1.90;1.80;;;21.10;62.10;;;;;;5035685;28;20032;-77
2022/06/01 04:30:16;;;;;;;2.40;2.10;;;21.10;62.30;;;;;;5035624;28;20475;-77
2022/06/01 04:32:44;;;;;;;2.65;1.73;;;21.10;62.30;;;;;;5034204;28;20479;-76
2022/06/01 04:35:10;;;;;;;1.90;1.80;;;21.10;62.40;;;;;;5035373;28;20026;-76
2022/06/01 04:37:37;;;;;;;2.17;2.08;;;21.10;62.20;;;;;;5034054;28;20026;-77
2022/06/01 04:40:03;;;;;;;2.35;2.10;;;21.10;62.30;;;;;;5035410;28;20025;-76
2022/06/01 04:42:29;;;;;;;2.83;2.00;;;21.10;62.40;;;;;;5033992;28;20037;-76
2022/06/01 04:44:55;;;;;;;2.28;2.00;;;21.10;62.30;;;;;;5035097;28;20038;-76
2022/06/01 04:47:21;;;;;;;2.58;2.05;;;21.10;62.30;;;;;;5020290;28;20030;-76
2022/06/01 04:49:47;;;;;;;2.30;2.10;;;21.10;62.40;;;;;;5029062;28;20029;-73
2022/06/01 04:52:13;;;;;;;2.20;2.00;;;21.10;62.50;;;;;;5023513;28;20036;-77
2022/06/01 04:54:39;;;;;;;2.20;2.10;;;21.10;62.60;;;;;;5021794;28;20033;-78
2022/06/01 04:57:06;;;;;;;2.33;2.17;;;21.10;62.60;;;;;;5024533;28;20100;-77
2022/06/01 04:59:32;;;;;;;2.85;2.10;;;21.10;62.60;;;;;;5022671;28;20033;-76
2022/06/01 05:01:58;;;;;;;2.38;2.17;;;21.20;62.70;;;;;;5020987;28;20025;-76
2022/06/01 05:04:25;;;;;;;2.30;2.10;;;21.20;62.70;;;;;;5019732;28;20061;-76
2022/06/01 05:06:51;;;;;;;4.50;2.20;;;21.20;62.70;;;;;;5019285;28;20121;-71
2022/06/01 05:09:17;;;;;;;2.33;2.00;;;21.20;62.70;;;;;;5020262;28;20025;-75
2022/06/01 05:11:43;;;;;;;2.30;2.10;;;21.30;62.80;;;;;;5032483;28;20388;-76
2022/06/01 05:14:09;;;;;;;2.20;2.00;;;21.30;62.80;;;;;;5031735;28;20033;-78
2022/06/01 05:16:34;;;;;;;2.20;1.90;;;21.40;62.80;;;;;;5028993;28;20482;-79
2022/06/01 05:19:00;;;;;;;2.30;1.90;;;21.40;62.70;;;;;;5016237;28;20049;-77
2022/06/01 05:21:26;;;;;;;2.65;2.10;;;21.50;62.70;;;;;;5027252;28;20029;-73
2022/06/01 05:23:52;;;;;;;3.03;2.10;;;21.50;62.70;;;;;;5033545;28;20106;-76
2022/06/01 05:26:18;;;;;;;1.95;1.85;;;21.50;62.70;;;;;;5033147;28;20461;-75
2022/06/01 05:28:43;;;;;;;2.42;2.22;;;21.50;62.70;;;;;;5025455;28;20050;-75
2022/06/01 05:31:11;;;;;;;3.22;2.15;;;21.60;62.80;;;;;;5031667;28;20030;-75
2022/06/01 05:33:39;;;;;;;3.58;2.30;;;21.60;62.80;;;;;;5025686;28;20467;-75
2022/06/01 05:36:05;;;;;;;2.10;2.00;;;21.60;62.80;;;;;;5020936;28;20506;-76
2022/06/01 05:38:31;;;;;;;2.33;2.05;;;21.60;62.80;;;;;;5021894;28;20037;-75
2022/06/01 05:40:57;;;;;;;2.47;2.28;;;21.60;62.90;;;;;;5023304;28;20026;-75
2022/06/01 05:43:23;;;;;;;2.88;2.30;;;21.60;62.90;;;;;;5026179;28;20072;-76
2022/06/01 05:45:49;;;;;;;3.60;2.45;;;21.70;62.90;;;;;;5026795;28;20080;-75
2022/06/01 05:48:17;;;;;;;3.10;2.30;;;21.70;62.90;;;;;;5033310;28;20048;-75
2022/06/01 05:50:43;;;;;;;2.17;2.05;;;21.70;62.90;;;;;;5031668;28;20124;-74
2022/06/01 05:53:10;;;;;;;4.28;2.30;;;21.70;62.90;;;;;;5021899;28;20112;-75
2022/06/01 05:55:36;;;;;;;2.38;2.17;;;21.80;63.00;;;;;;5013712;28;20022;-72
2022/06/01 05:58:12;;;;;;;2.75;2.42;;;21.80;63.00;;;;;;5023545;28;20040;-75
2022/06/01 06:00:39;;;;;;;2.42;2.22;;;21.70;63.00;;;;;;5012184;28;20037;-75
2022/06/01 06:03:04;;;;;;;2.35;2.15;;;21.80;63.00;;;;;;5011280;28;20384;-77
2022/06/01 06:08:14;;;;;;;;;;;21.80;63.20;;;;;;5014544;28;20465;-75
2022/06/01 06:10:41;;;;;;;2.38;2.17;;;21.70;63.80;;;;;;4996408;28;19940;-75
2022/06/01 06:13:06;;;;;;;2.35;2.15;;;21.80;63.20;;;;;;5012616;28;20040;-75
2022/06/01 06:15:32;;;;;;;2.97;2.15;;;21.80;63.30;;;;;;5013631;28;20033;-75
2022/06/01 06:17:57;;;;;;;2.58;2.38;;;21.80;63.30;;;;;;5014147;28;20140;-74
2022/06/01 06:20:23;;;;;;;3.33;2.20;;;21.80;63.40;;;;;;5013849;28;20040;-74
2022/06/01 06:22:49;;;;;;;4.47;2.30;;;21.80;63.40;;;;;;5014127;28;20030;-74
2022/06/01 06:25:14;;;;;;;2.40;2.20;;;21.90;63.50;;;;;;5013909;28;20033;-74
2022/06/01 06:27:40;;;;;;;3.30;2.80;;;21.90;63.60;;;;;;5012684;28;20384;-74
2022/06/01 06:30:06;;;;;;;3.17;2.60;;;21.90;63.60;;;;;;5013314;28;20061;-74
2022/06/01 06:32:32;;;;;;;3.13;2.75;;;21.90;63.60;;;;;;5012595;28;20030;-74
2022/06/01 06:34:58;;;;;;;2.55;2.30;;;22.00;63.70;;;;;;5013911;28;20457;-74
2022/06/01 06:37:23;;;;;;;3.10;2.40;;;22.00;63.70;;;;;;5013649;28;20080;-75
2022/06/01 06:39:49;;;;;;;2.85;2.22;;;22.00;63.80;;;;;;5012306;28;20033;-75
2022/06/01 06:42:15;;;;;;;3.05;2.30;;;22.10;63.90;;;;;;5013553;28;20069;-75
2022/06/01 06:44:41;;;;;;;2.42;2.22;;;22.10;63.90;;;;;;5013548;28;20032;-76
2022/06/01 06:47:06;;;;;;;3.28;2.90;;;22.20;64.00;;;;;;5013910;28;20041;-75
2022/06/01 06:49:32;;;;;;;4.20;2.70;;;22.20;64.00;;;;;;5012393;28;20030;-75
2022/06/01 06:51:58;;;;;;;3.42;2.47;;;22.20;64.00;;;;;;5013553;28;20036;-75
2022/06/01 06:54:25;;;;;;;2.60;2.35;;;22.30;64.20;;;;;;5012394;28;20118;-73
2022/06/01 06:56:51;;;;;;;2.78;2.47;;;22.30;64.20;;;;;;5012417;28;20034;-74
2022/06/01 06:59:17;;;;;;;2.40;2.20;;;22.30;64.20;;;;;;5013282;28;20476;-74
2022/06/01 07:01:43;;;;;;;2.45;2.25;;;22.40;64.20;;;;;;4996026;28;20037;-74
2022/06/01 07:04:09;;;;;;;2.40;2.20;;;22.40;64.20;;;;;;5013571;28;20026;-74
2022/06/01 07:06:35;;;;;;;2.78;2.45;;;22.40;64.20;;;;;;5013597;28;20034;-74
2022/06/01 07:09:01;;;;;;;2.33;2.13;;;22.50;64.30;;;;;;5012159;28;20361;-74
2022/06/01 07:11:29;;;;;;;2.45;2.25;;;22.50;64.30;;;;;;5013418;28;20380;-74
2022/06/01 07:13:55;;;;;;;6.50;3.83;;;22.50;64.30;;;;;;5013488;28;20179;-75
2022/06/01 07:16:30;;;;;;;3.10;2.58;;;22.50;64.30;;;;;;5013553;28;20017;-75
2022/06/01 07:18:58;;;;;;;3.65;2.40;;;22.60;64.40;;;;;;5012423;28;20461;-75
2022/06/01 07:21:25;;;;;;;2.40;2.20;;;22.60;64.30;;;;;;5013399;28;20067;-75
2022/06/01 07:23:51;;;;;;;2.60;2.40;;;22.60;64.20;;;;;;5012113;28;20061;-75
2022/06/01 07:26:29;;;;;;;2.58;2.30;;;22.70;64.40;;;;;;5015729;28;20034;-74
2022/06/01 07:28:55;;;;;;;2.55;2.20;;;22.70;64.40;;;;;;5017053;28;20053;-74
2022/06/01 07:31:21;;;;;;;2.22;2.03;;;22.70;64.30;;;;;;5016791;28;20026;-74
2022/06/01 07:33:48;;;;;;;2.42;2.22;;;22.70;64.20;;;;;;5016569;28;20036;-74
2022/06/01 07:36:16;;;;;;;2.22;2.05;;;22.70;64.20;;;;;;5016889;28;20025;-74
2022/06/01 07:44:25;;;;;;;2.50;2.30;;;22.80;64.40;;;;;;5016735;28;20041;-74
2022/06/01 07:46:51;;;;;;;2.80;2.33;;;22.90;64.40;;;;;;5016293;28;20026;-74
2022/06/01 07:49:19;;;;;;;2.63;2.42;;;22.90;64.40;;;;;;5016286;28;20030;-75
2022/06/01 07:51:45;;;;;;;2.00;1.90;;;22.90;64.30;;;;;;5015217;28;20041;-74
2022/06/01 07:54:11;;;;;;;3.15;2.00;;;23.00;64.20;;;;;;5016637;28;20468;-74
2022/06/01 07:56:37;;;;;;;2.80;2.38;;;23.00;64.20;;;;;;5014991;28;20022;-74
2022/06/01 07:59:05;;;;;;;3.08;2.08;;;23.10;64.10;;;;;;5016170;28;20044;-74
2022/06/01 08:01:31;;;;;;;2.42;2.22;;;23.10;64.10;;;;;;5016095;28;20052;-74
2022/06/01 08:03:59;;;;;;;3.00;2.70;;;23.10;64.00;;;;;;5016251;28;20388;-74
2022/06/01 08:06:27;;;;;;;2.53;2.33;;;23.20;64.00;;;;;;5016617;28;20041;-74
2022/06/01 08:08:53;;;;;;;2.88;2.28;;;23.20;64.00;;;;;;5016165;28;20036;-75
2022/06/01 08:11:20;;;;;;;3.97;2.28;;;23.30;64.10;;;;;;5014959;28;20029;-75
2022/06/01 08:13:46;;;;;;;2.65;2.38;;;23.30;64.00;;;;;;5014654;28;20080;-75
2022/06/01 08:16:12;;;;;;;2.50;2.28;;;23.30;63.80;;;;;;5015964;28;20407;-75
2022/06/01 08:18:37;;;;;;;3.63;2.42;;;23.40;63.70;;;;;;5016082;28;20029;-75
2022/06/01 08:21:04;;;;;;;2.70;2.50;;;23.40;63.70;;;;;;5016048;28;20069;-74
2022/06/01 08:23:32;;;;;;;2.75;2.40;;;23.40;63.60;;;;;;5015667;28;20484;-74
2022/06/01 08:25:58;;;;;;;2.65;2.30;;;23.40;63.60;;;;;;5014468;28;20516;-75
2022/06/01 08:28:25;;;;;;;2.80;2.22;;;23.40;63.50;;;;;;5015259;28;20141;-75
2022/06/01 08:30:51;;;;;;;2.75;2.25;;;23.50;63.50;;;;;;5014069;28;20088;-75
2022/06/01 08:33:17;;;;;;;2.53;2.33;;;23.40;63.40;;;;;;5015592;28;20021;-75
2022/06/01 08:35:46;;;;;;;2.90;2.60;;;23.50;63.50;;;;;;5015326;28;20092;-75
2022/06/01 08:38:12;;;;;;;3.95;2.67;;;23.50;63.30;;;;;;5014160;28;20034;-75
2022/06/01 08:40:56;;;;;;;2.40;2.20;;;23.50;63.30;;;;;;5013764;28;20125;-74
2022/06/01 08:43:28;;;;;;;2.50;2.30;;;23.60;63.90;;;;;;5013549;28;20025;-75
2022/06/01 08:45:58;;;;;;;4.32;2.30;;;23.60;63.20;;;;;;5014194;28;20034;-75
2022/06/01 08:48:34;;;;;;;3.30;2.50;;;23.60;63.20;;;;;;5015622;28;20140;-75
2022/06/01 08:51:00;;;;;;;4.13;2.75;;;23.70;63.10;;;;;;5014385;28;20033;-75
2022/06/01 08:53:26;;;;;;;2.90;2.60;;;23.70;63.10;;;;;;5013948;28;20483;-75
2022/06/01 08:55:56;;;;;;;2.55;2.33;;;23.70;62.90;;;;;;5030759;28;20083;-76
2022/06/01 08:58:31;;;;;;;2.60;2.40;;;23.70;62.80;;;;;;5017268;28;20025;-75
2022/06/01 09:01:25;;;;;;;2.72;2.20;;;23.80;62.70;;;;;;5034769;28;20456;-76
2022/06/01 09:04:02;;;;;;;3.13;2.30;;;23.80;62.70;;;;;;5033547;28;20053;-75
2022/06/01 09:06:35;;;;;;;2.58;1.90;;;23.80;62.50;;;;;;5033295;28;20467;-75
2022/06/01 09:09:05;;;;;;;2.20;2.00;;;23.80;62.50;;;;;;5033869;28;20416;-76
2022/06/01 09:11:33;;;;;;;2.13;1.80;;;23.80;62.50;;;;;;5033451;28;20022;-74
2022/06/01 09:14:11;;;;;;;2.85;2.17;;;23.80;62.40;;;;;;5033212;28;20075;-74
2022/06/01 09:16:48;;;;;;;2.40;2.20;;;23.80;62.40;;;;;;5033222;28;20052;-75
2022/06/01 09:22:37;;;;;;;2.78;2.33;;;23.80;62.30;;;;;;5034572;28;20447;-74
2022/06/01 09:25:06;;;;;;;2.72;2.00;;;23.90;62.30;;;;;;5034252;28;20028;-76
2022/06/01 09:27:48;;;;;;;2.90;2.00;;;23.90;62.20;;;;;;5033247;28;20036;-74
2022/06/01 09:30:37;;;;;;;3.40;2.10;;;23.90;62.10;;;;;;5034292;28;20053;-76
2022/06/01 09:33:10;;;;;;;2.20;2.00;;;23.90;62.00;;;;;;5033689;28;20033;-74
2022/06/01 09:35:41;;;;;;;3.25;1.95;;;23.90;62.00;;;;;;5033937;28;20448;-74
2022/06/01 09:38:34;;;;;;;2.53;2.00;;;24.00;62.00;;;;;;5034506;28;20025;-75
2022/06/01 09:41:30;;;;;;;2.22;2.03;;;24.00;61.80;;;;;;5033059;28;20395;-75
2022/06/01 09:44:03;;;;;;;2.65;2.10;;;24.00;61.70;;;;;;5032440;28;20502;-75
2022/06/01 09:46:33;;;;;;;3.47;2.20;;;24.10;61.80;;;;;;5034342;28;20044;-75
2022/06/01 09:49:04;;;;;;;2.65;2.40;;;24.10;61.70;;;;;;5032244;28;20546;-75
2022/06/01 09:51:34;;;;;;;3.45;2.22;;;24.10;61.60;;;;;;5032732;28;20029;-75
2022/06/01 09:54:27;;;;;;;2.47;2.00;;;24.20;61.60;;;;;;5034044;28;20452;-75
2022/06/01 09:56:53;;;;;;;2.17;1.98;;;24.20;61.20;;;;;;5033861;28;20384;-75
2022/06/01 10:07:46;;;;;;;3.05;2.30;;;24.40;60.90;;;;;;5034014;28;20041;-75
2022/06/01 10:10:26;;;;;;;2.22;2.03;;;24.40;60.80;;;;;;5033843;28;20038;-76
2022/06/01 10:12:58;;;;;;;2.40;2.10;;;24.30;60.60;;;;;;5032653;28;20094;-75
2022/06/01 10:15:42;;;;;;;2.35;2.15;;;24.40;60.60;;;;;;5033646;28;20581;-76
2022/06/01 10:18:19;;;;;;;2.90;2.00;;;24.40;60.60;;;;;;5033785;28;20056;-76
2022/06/01 10:20:55;;;;;;;2.25;2.05;;;24.40;60.50;;;;;;5033378;28;20044;-75
2022/06/01 10:23:39;;;;;;;3.25;1.88;;;24.50;60.50;;;;;;5033339;28;20068;-75
2022/06/01 10:26:14;;;;;;;2.00;1.80;;;24.50;60.40;;;;;;5033519;28;20036;-75
2022/06/01 10:28:47;;;;;;;2.20;2.00;;;24.60;60.30;;;;;;5032110;28;20279;-75
2022/06/01 10:31:32;;;;;;;2.30;1.77;;;24.50;60.20;;;;;;5033808;28;20468;-75
2022/06/01 10:34:06;;;;;;;;;;;24.50;60.10;;;;;;5032570;28;20025;-74
2022/06/01 10:36:38;;;;;;;;;;;24.50;59.80;;;;;;5034101;28;19905;-75
2022/06/01 10:39:40;;;;;;;2.08;1.60;;;24.50;59.70;;;;;;5033458;28;19912;-74
2022/06/01 10:42:09;;;;;;;2.10;1.90;;;24.60;59.90;;;;;;5033569;28;20095;-75
2022/06/01 10:44:41;;;;;;;3.65;1.95;;;24.60;60.00;;;;;;5032114;28;20032;-75
2022/06/01 10:47:25;;;;;;;3.50;2.13;;;24.60;60.00;;;;;;5033541;28;20081;-75
2022/06/01 10:50:17;;;;;;;2.45;1.98;;;24.70;59.90;;;;;;5017432;28;20043;-76
2022/06/01 10:52:57;;;;;;;3.63;1.90;;;24.70;59.50;;;;;;5015765;28;20057;-75
2022/06/01 10:55:30;;;;;;;2.28;1.90;;;24.70;59.70;;;;;;5032260;28;20124;-75
2022/06/01 10:57:59;;;;;;;2.63;2.00;;;24.70;59.60;;;;;;5032408;28;20029;-75
2022/06/01 11:00:49;;;;;;;3.88;2.03;;;24.70;59.60;;;;;;5034523;28;20038;-75
2022/06/01 11:03:35;;;;;;;2.53;2.13;;;24.70;59.40;;;;;;5035767;28;20055;-74
2022/06/01 11:06:35;;;;;;;2.85;2.30;;;24.70;59.50;;;;;;5036980;28;20021;-74
2022/06/01 11:09:22;;;;;;;2.13;1.90;;;24.70;59.30;;;;;;5035503;28;20075;-75
2022/06/01 11:11:59;;;;;;;2.17;1.98;;;24.80;59.20;;;;;;5035873;28;20029;-75
2022/06/01 11:15:01;;;;;;;2.40;1.95;;;24.70;59.20;;;;;;5036195;28;20029;-76
2022/06/01 11:17:36;;;;;;;2.65;2.13;;;24.80;59.10;;;;;;5035529;28;20034;-76
2022/06/01 11:20:34;;;;;;;2.17;1.98;;;24.80;59.20;;;;;;5036671;28;20033;-76
2022/06/01 11:22:59;;;;;;;2.85;1.90;;;24.80;59.00;;;;;;5036590;28;20022;-75
2022/06/01 11:25:34;;;;;;;3.28;2.10;;;24.90;59.00;;;;;;5036607;28;20032;-76
2022/06/01 11:28:22;;;;;;;1.85;1.75;;;24.90;59.00;;;;;;5035132;28;20021;-74
2022/06/01 11:31:20;;;;;;;2.25;2.03;;;25.00;58.70;;;;;;5019440;28;20064;-74
2022/06/01 11:34:04;;;;;;;4.03;2.35;;;25.00;58.60;;;;;;5036750;28;20061;-75
2022/06/01 11:36:42;;;;;;;;;;;25.10;58.70;;;;;;5037054;28;20105;-77
2022/06/01 11:39:24;;;;;;;1.75;1.65;;;25.00;58.20;;;;;;5036575;28;19905;-76
2022/06/01 11:42:03;;;;;;;3.70;2.15;;;25.10;58.50;;;;;;5035202;28;20036;-75
2022/06/01 11:45:00;;;;;;;2.10;1.85;;;25.10;58.50;;;;;;5035088;28;20075;-75
2022/06/01 11:47:34;;;;;;;2.20;2.00;;;25.10;58.30;;;;;;5037495;28;20049;-75
2022/06/01 11:50:15;;;;;;;2.30;2.10;;;25.10;58.40;;;;;;5035031;28;20064;-75
2022/06/01 11:53:07;;;;;;;1.88;1.67;;;25.20;58.30;;;;;;5034751;28;20036;-75
2022/06/01 11:55:36;;;;;;;4.45;2.35;;;25.20;58.10;;;;;;5038128;28;20029;-75
2022/06/01 11:58:16;;;;;;;2.75;1.88;;;25.30;58.30;;;;;;5035917;28;20104;-75
2022/06/01 12:00:54;;;;;;;2.03;1.70;;;25.30;58.20;;;;;;5034733;28;20120;-75
2022/06/01 12:03:19;;;;;;;2.05;1.85;;;25.30;58.10;;;;;;5035841;28;20120;-76
2022/06/01 12:06:08;;;;;;;2.53;2.05;;;25.40;58.20;;;;;;5036038;28;20057;-76
2022/06/01 12:08:49;;;;;;;3.47;2.22;;;25.50;57.90;;;;;;5034693;28;20083;-75
2022/06/01 12:11:38;;;;;;;2.20;2.00;;;25.50;58.00;;;;;;5034175;28;20029;-75
2022/06/01 12:14:22;;;;;;;2.70;2.10;;;25.60;57.70;;;;;;5038138;28;20158;-75
2022/06/01 12:17:20;;;;;;;2.53;1.80;;;25.60;57.60;;;;;;5035194;28;20392;-75
2022/06/01 12:20:04;;;;;;;2.28;1.88;;;25.60;57.30;;;;;;5035403;28;20053;-74
2022/06/01 12:28:46;;;;;;;2.00;1.75;;;25.90;57.10;;;;;;5035420;28;20098;-74
2022/06/01 12:31:29;;;;;;;2.83;2.00;;;26.00;57.20;;;;;;5036142;28;20037;-75
2022/06/01 12:34:13;;;;;;;3.03;2.10;;;26.10;57.20;;;;;;5035375;28;20034;-75
2022/06/01 12:36:46;;;;;;;2.03;1.88;;;26.20;57.10;;;;;;5034327;28;20387;-76
2022/06/01 12:39:49;;;;;;;3.70;2.13;;;26.20;57.00;;;;;;5034070;28;20025;-75
2022/06/01 12:42:20;;;;;;;2.13;1.90;;;26.30;56.50;;;;;;5035010;28;20044;-76
2022/06/01 12:44:50;;;;;;;2.72;2.13;;;26.40;56.70;;;;;;5035270;28;20490;-76
2022/06/01 12:47:48;;;;;;;2.55;2.35;;;26.40;56.50;;;;;;5035088;28;20038;-74
2022/06/01 12:50:17;;;;;;;3.33;2.05;;;26.50;56.10;;;;;;5035156;28;20042;-76
2022/06/01 12:52:44;;;;;;;2.47;1.90;;;26.50;56.30;;;;;;5033989;28;20120;-76
2022/06/01 12:55:19;;;;;;;2.17;1.88;;;26.60;56.10;;;;;;5035265;28;20033;-75
2022/06/01 12:57:52;;;;;;;2.90;1.90;;;26.70;55.90;;;;;;5033772;28;20029;-76
2022/06/01 13:00:23;;;;;;;4.30;2.05;;;26.60;55.80;;;;;;5033619;28;20033;-75
2022/06/01 13:02:48;;;;;;;2.08;1.80;;;26.60;55.80;;;;;;5033962;28;20116;-76
2022/06/01 13:05:36;;;;;;;3.30;2.33;;;26.60;55.90;;;;;;5035150;28;20570;-75
2022/06/01 13:08:04;;;;;;;3.25;2.13;;;26.80;55.60;;;;;;5033403;28;20037;-76
2022/06/01 13:10:32;;;;;;;2.58;2.00;;;26.90;55.60;;;;;;5033579;28;20033;-75
2022/06/01 13:13:11;;;;;;;2.13;1.92;;;26.90;55.30;;;;;;5033463;28;20029;-74
2022/06/01 13:15:42;;;;;;;4.60;1.92;;;27.10;55.10;;;;;;5033635;28;20025;-75
2022/06/01 13:18:14;;;;;;;2.17;1.98;;;27.20;55.10;;;;;;5033043;28;20032;-75
2022/06/01 13:20:48;;;;;;;2.38;2.03;;;27.30;54.90;;;;;;5033250;28;20111;-76
2022/06/01 13:23:33;;;;;;;2.63;1.88;;;27.40;54.70;;;;;;5033898;28;20391;-75
2022/06/01 13:26:04;;;;;;;2.10;1.85;;;27.50;54.50;;;;;;5033257;28;20029;-75
2022/06/01 13:28:30;;;;;;;4.40;2.00;;;27.50;54.50;;;;;;5033173;28;20073;-76
2022/06/01 13:30:56;;;;;;;1.90;1.73;;;27.70;54.40;;;;;;5034438;28;20065;-76
2022/06/01 13:33:25;;;;;;;2.30;1.95;;;27.90;54.20;;;;;;5034133;28;20461;-75
2022/06/01 13:36:00;;;;;;;2.95;2.03;;;28.20;53.80;;;;;;5034182;28;20036;-76
2022/06/01 13:38:47;;;;;;;2.38;1.90;;;28.60;53.20;;;;;;5033155;28;20026;-75
2022/06/01 13:41:20;;;;;;;2.42;1.88;;;29.10;52.70;;;;;;5032732;28;20388;-76
2022/06/01 13:43:48;;;;;;;2.00;1.67;;;29.60;52.60;;;;;;5033315;28;20467;-77